Time;durP1;ratioP1;P1;durP2;ratioP2;P2;SDS_P1;SDS_P2;PMS_P1;PMS_P2;Temp;Humidity;BMP_temperature;BMP_pressure;BME280_temperature;BME280_humidity;BME280_pressure;Samples;Min_cycle;Max_cycle;Signal;HPM_P1;HPM_P2
2022/04/14 00:02:06;;;;;;;6.80;4.03;;;;;;;;;;4933157;29;20442;-65
2022/04/14 00:04:35;;;;;;;9.48;4.55;;;;;;;;;;4934542;28;20115;-72
2022/04/14 00:07:02;;;;;;;6.90;3.92;;;;;;;;;;4934568;29;20034;-64
2022/04/14 00:09:28;;;;;;;6.90;3.90;;;;;;;;;;4934456;29;20127;-67
2022/04/14 00:11:55;;;;;;;5.68;3.72;;;;;;;;;;4934525;29;20042;-72
2022/04/14 00:14:21;;;;;;;5.53;4.25;;;;;;;;;;4934620;29;20039;-65
2022/04/14 00:16:48;;;;;;;4.93;3.63;;;;;;;;;;4934298;29;20083;-66
2022/04/14 00:19:13;;;;;;;6.25;4.28;;;;;;;;;;4934404;29;20102;-64
2022/04/14 00:21:39;;;;;;;6.40;4.38;;;;;;;;;;4934456;28;20036;-65
2022/04/14 00:24:05;;;;;;;5.75;4.50;;;;;;;;;;4933908;29;20111;-66
2022/04/14 00:26:31;;;;;;;7.47;4.80;;;;;;;;;;4934421;29;20035;-73
2022/04/14 00:28:57;;;;;;;6.70;4.80;;;;;;;;;;4938237;29;20043;-71
2022/04/14 00:31:23;;;;;;;6.43;4.68;;;;;;;;;;4937811;29;20027;-66
2022/04/14 00:33:49;;;;;;;5.55;4.75;;;;;;;;;;4937657;29;20035;-67
2022/04/14 00:36:15;;;;;;;6.38;4.75;;;;;;;;;;4937863;29;20390;-68
2022/04/14 00:38:41;;;;;;;7.93;4.95;;;;;;;;;;4937562;29;20036;-67
2022/04/14 00:41:07;;;;;;;5.05;4.20;;;;;;;;;;4937311;29;20030;-75
2022/04/14 00:43:35;;;;;;;5.38;4.60;;;;;;;;;;4936995;29;20110;-71
2022/04/14 00:46:02;;;;;;;7.85;4.57;;;;;;;;;;4937377;29;20032;-74
2022/04/14 00:48:29;;;;;;;7.93;4.68;;;;;;;;;;4937481;29;20035;-71
2022/04/14 00:50:55;;;;;;;6.78;4.65;;;;;;;;;;4937754;29;20120;-68
2022/04/14 00:53:23;;;;;;;7.78;5.00;;;;;;;;;;4934348;28;20050;-72
2022/04/14 00:55:49;;;;;;;6.35;4.93;;;;;;;;;;4931073;29;20493;-66
2022/04/14 00:58:16;;;;;;;6.30;4.80;;;;;;;;;;4937741;29;20126;-69
2022/04/14 01:00:41;;;;;;;5.30;4.47;;;;;;;;;;4937882;29;20152;-67
2022/04/14 01:03:09;;;;;;;6.60;4.55;;;;;;;;;;4936337;29;20063;-68
2022/04/14 01:05:36;;;;;;;20.80;6.90;;;;;;;;;;4937669;29;20027;-67
2022/04/14 01:08:02;;;;;;;9.70;6.05;;;;;;;;;;4939579;29;20506;-67
2022/04/14 01:10:29;;;;;;;13.32;7.38;;;;;;;;;;4940456;29;20410;-69
2022/04/14 01:12:56;;;;;;;8.73;6.03;;;;;;;;;;4937188;29;20036;-74
2022/04/14 01:15:21;;;;;;;8.68;6.03;;;;;;;;;;4937316;29;20538;-71
2022/04/14 01:17:47;;;;;;;9.95;5.93;;;;;;;;;;4936755;29;20058;-70
2022/04/14 01:20:13;;;;;;;8.82;5.93;;;;;;;;;;4934611;29;20047;-70
2022/04/14 01:22:54;;;;;;;7.63;6.00;;;;;;;;;;4936051;29;20130;-66
2022/04/14 01:25:20;;;;;;;7.05;5.55;;;;;;;;;;4936880;29;20122;-69
2022/04/14 01:27:45;;;;;;;6.78;5.65;;;;;;;;;;4935999;29;20483;-70
2022/04/14 01:30:11;;;;;;;6.53;5.63;;;;;;;;;;4934144;29;20120;-76
2022/04/14 01:32:37;;;;;;;7.53;5.45;;;;;;;;;;4937591;29;20031;-66
2022/04/14 01:35:05;;;;;;;8.00;6.00;;;;;;;;;;4936746;29;20038;-72
2022/04/14 01:37:30;;;;;;;11.60;6.47;;;;;;;;;;4936327;29;20023;-67
2022/04/14 01:39:56;;;;;;;10.25;6.28;;;;;;;;;;4936705;29;20047;-69
2022/04/14 01:42:22;;;;;;;7.78;6.63;;;;;;;;;;4936254;29;20032;-70
2022/04/14 01:44:48;;;;;;;9.75;6.50;;;;;;;;;;4936527;29;20471;-67
2022/04/14 01:47:14;;;;;;;8.48;6.57;;;;;;;;;;4936461;29;20500;-68
2022/04/14 01:49:40;;;;;;;11.43;8.15;;;;;;;;;;4933518;29;20114;-68
2022/04/14 01:52:06;;;;;;;12.85;8.30;;;;;;;;;;4935692;29;20130;-66
2022/04/14 01:54:32;;;;;;;10.80;7.97;;;;;;;;;;4935995;29;20348;-70
2022/04/14 01:56:58;;;;;;;15.63;9.60;;;;;;;;;;4936536;29;20118;-71
2022/04/14 01:59:24;;;;;;;24.38;10.00;;;;;;;;;;4936375;29;20086;-72
2022/04/14 02:01:50;;;;;;;15.48;9.68;;;;;;;;;;4950982;28;20391;-67
2022/04/14 02:04:16;;;;;;;23.90;9.32;;;;;;;;;;4936872;29;20066;-71
2022/04/14 02:06:41;;;;;;;23.27;10.02;;;;;;;;;;4936385;29;20028;-69
2022/04/14 02:09:08;;;;;;;13.65;9.88;;;;;;;;;;4936325;29;20062;-76
2022/04/14 02:11:33;;;;;;;13.55;10.20;;;;;;;;;;4936448;29;20030;-70
2022/04/14 02:13:59;;;;;;;19.20;10.27;;;;;;;;;;4936177;29;20126;-70
2022/04/14 02:16:25;;;;;;;15.88;10.68;;;;;;;;;;4935711;29;20016;-69
2022/04/14 02:18:51;;;;;;;12.60;9.00;;;;;;;;;;4935453;29;20075;-66
2022/04/14 02:21:17;;;;;;;14.73;9.38;;;;;;;;;;4932894;29;21787;-69
2022/04/14 02:23:42;;;;;;;14.90;9.98;;;;;;;;;;4935609;29;20039;-66
2022/04/14 02:26:08;;;;;;;17.10;10.38;;;;;;;;;;4935359;29;20032;-65
2022/04/14 02:28:34;;;;;;;12.50;8.65;;;;;;;;;;4935614;29;20044;-71
2022/04/14 02:31:00;;;;;;;22.25;10.50;;;;;;;;;;4935329;29;20032;-71
2022/04/14 02:33:25;;;;;;;13.15;9.00;;;;;;;;;;4935312;29;20407;-69
2022/04/14 02:35:51;;;;;;;16.70;9.25;;;;;;;;;;4935303;29;20023;-65
2022/04/14 02:38:17;;;;;;;21.58;10.20;;;;;;;;;;4935417;29;20372;-67
2022/04/14 02:40:43;;;;;;;23.42;9.52;;;;;;;;;;4935491;29;20034;-66
2022/04/14 02:43:09;;;;;;;17.77;9.60;;;;;;;;;;4935398;29;20054;-67
2022/04/14 02:45:35;;;;;;;12.85;8.98;;;;;;;;;;4950023;29;20036;-70
2022/04/14 02:48:00;;;;;;;14.70;9.50;;;;;;;;;;4935133;29;20031;-65
2022/04/14 02:50:26;;;;;;;12.45;8.82;;;;;;;;;;4933793;29;20052;-66
2022/04/14 02:52:54;;;;;;;16.73;9.02;;;;;;;;;;4934730;29;20479;-64
2022/04/14 02:55:20;;;;;;;15.35;8.50;;;;;;;;;;4935151;29;20071;-71
2022/04/14 02:57:47;;;;;;;13.57;8.70;;;;;;;;;;4935168;29;20062;-68
2022/04/14 03:00:14;;;;;;;13.95;8.90;;;;;;;;;;4934946;29;20036;-65
2022/04/14 03:02:40;;;;;;;16.45;9.35;;;;;;;;;;4935365;29;20039;-66
2022/04/14 03:05:07;;;;;;;13.07;8.90;;;;;;;;;;4940087;29;20042;-64
2022/04/14 03:07:33;;;;;;;12.68;8.85;;;;;;;;;;4938115;29;20040;-66
2022/04/14 03:10:00;;;;;;;12.40;8.55;;;;;;;;;;4935285;29;20031;-65
2022/04/14 03:12:26;;;;;;;17.13;8.20;;;;;;;;;;4934702;29;20042;-64
2022/04/14 03:14:52;;;;;;;17.58;9.73;;;;;;;;;;4935119;29;20028;-62
2022/04/14 03:17:18;;;;;;;12.82;7.93;;;;;;;;;;4934596;29;20115;-67
2022/04/14 03:19:44;;;;;;;13.80;8.38;;;;;;;;;;4935145;29;20503;-64
2022/04/14 03:22:09;;;;;;;26.77;10.02;;;;;;;;;;4933695;29;20051;-68
2022/04/14 03:24:35;;;;;;;13.07;9.02;;;;;;;;;;4935016;29;20031;-65
2022/04/14 03:27:01;;;;;;;16.15;9.02;;;;;;;;;;4934959;29;20031;-73
2022/04/14 03:29:32;;;;;;;16.90;10.10;;;;;;;;;;4950339;28;20086;-68
2022/04/14 03:31:59;;;;;;;17.42;9.77;;;;;;;;;;4934742;29;20031;-72
2022/04/14 03:34:25;;;;;;;13.18;8.80;;;;;;;;;;4933954;29;20075;-67
2022/04/14 03:36:50;;;;;;;14.38;9.00;;;;;;;;;;4934576;29;20043;-74
2022/04/14 03:39:17;;;;;;;16.83;10.68;;;;;;;;;;4934347;29;20123;-69
2022/04/14 03:41:43;;;;;;;28.38;10.95;;;;;;;;;;4934745;29;20052;-67
2022/04/14 03:44:09;;;;;;;14.57;9.07;;;;;;;;;;4934349;29;20095;-74
2022/04/14 03:46:35;;;;;;;21.75;9.52;;;;;;;;;;4934947;29;20048;-75
2022/04/14 03:49:01;;;;;;;18.08;9.68;;;;;;;;;;4935038;29;20026;-74
2022/04/14 03:51:26;;;;;;;19.83;10.07;;;;;;;;;;4932855;29;20051;-75
2022/04/14 03:53:52;;;;;;;16.83;9.75;;;;;;;;;;4932772;29;20086;-71
2022/04/14 03:56:18;;;;;;;19.58;10.82;;;;;;;;;;4935155;29;20059;-73
2022/04/14 03:58:44;;;;;;;29.98;11.55;;;;;;;;;;4935304;29;20024;-76
2022/04/14 04:01:10;;;;;;;29.15;11.90;;;;;;;;;;4937327;29;20093;-75
2022/04/14 04:03:35;;;;;;;21.70;10.80;;;;;;;;;;4941820;29;20023;-67
2022/04/14 04:06:01;;;;;;;15.25;9.60;;;;;;;;;;4942128;29;20170;-74
2022/04/14 04:08:27;;;;;;;18.33;10.07;;;;;;;;;;4941273;29;20387;-77
2022/04/14 04:10:53;;;;;;;18.70;9.73;;;;;;;;;;4940900;29;20036;-74
2022/04/14 04:13:18;;;;;;;19.40;11.38;;;;;;;;;;4951878;28;20039;-76
2022/04/14 04:15:45;;;;;;;22.42;9.73;;;;;;;;;;4941720;28;20122;-76
2022/04/14 04:18:11;;;;;;;27.90;9.35;;;;;;;;;;4941549;29;20063;-77
2022/04/14 04:20:38;;;;;;;25.80;9.60;;;;;;;;;;4941442;29;20036;-72
2022/04/14 04:23:04;;;;;;;16.45;9.80;;;;;;;;;;4941270;29;20028;-68
2022/04/14 04:25:31;;;;;;;19.13;8.05;;;;;;;;;;4941778;29;20060;-69
2022/04/14 04:27:56;;;;;;;24.70;10.65;;;;;;;;;;4939148;29;20386;-64
2022/04/14 04:30:22;;;;;;;17.77;9.18;;;;;;;;;;4940959;29;20134;-64
2022/04/14 04:32:48;;;;;;;20.45;9.10;;;;;;;;;;4941113;29;20059;-65
2022/04/14 04:35:14;;;;;;;22.60;10.00;;;;;;;;;;4940667;29;20056;-67
2022/04/14 04:37:41;;;;;;;16.60;9.05;;;;;;;;;;4940450;29;20051;-64
2022/04/14 04:40:07;;;;;;;21.02;8.73;;;;;;;;;;4941014;29;20075;-65
2022/04/14 04:42:33;;;;;;;11.60;7.68;;;;;;;;;;4940891;29;20024;-71
2022/04/14 04:44:59;;;;;;;16.48;8.02;;;;;;;;;;4940923;29;20473;-68
2022/04/14 04:47:25;;;;;;;12.80;6.93;;;;;;;;;;4940850;29;20030;-68
2022/04/14 04:49:51;;;;;;;22.55;8.48;;;;;;;;;;4940481;29;20110;-68
2022/04/14 04:52:17;;;;;;;15.77;6.32;;;;;;;;;;4940206;29;20040;-74
2022/04/14 04:54:43;;;;;;;17.80;7.90;;;;;;;;;;4940633;29;20046;-68
2022/04/14 04:57:09;;;;;;;13.10;7.07;;;;;;;;;;4940551;29;20032;-64
2022/04/14 04:59:35;;;;;;;13.35;7.45;;;;;;;;;;4940665;29;20157;-74
2022/04/14 05:02:01;;;;;;;20.95;7.75;;;;;;;;;;4940797;29;20059;-67
2022/04/14 05:04:27;;;;;;;13.38;6.88;;;;;;;;;;4944329;29;20034;-65
2022/04/14 05:06:52;;;;;;;14.77;7.47;;;;;;;;;;4940896;29;20039;-64
2022/04/14 05:09:20;;;;;;;21.83;7.07;;;;;;;;;;4939714;29;20036;-67
2022/04/14 05:11:46;;;;;;;13.75;6.43;;;;;;;;;;4940020;29;20558;-67
2022/04/14 05:14:11;;;;;;;16.92;6.22;;;;;;;;;;4936160;29;20064;-66
2022/04/14 05:16:37;;;;;;;21.02;7.20;;;;;;;;;;4937134;29;20028;-65
2022/04/14 05:19:05;;;;;;;15.10;6.15;;;;;;;;;;4936926;29;20043;-68
2022/04/14 05:21:31;;;;;;;8.00;6.05;;;;;;;;;;4936854;29;20110;-65
2022/04/14 05:23:57;;;;;;;18.70;9.15;;;;;;;;;;4936592;29;20039;-64
2022/04/14 05:26:22;;;;;;;11.02;5.50;;;;;;;;;;4936296;29;20024;-67
2022/04/14 05:28:48;;;;;;;19.85;6.63;;;;;;;;;;4934580;29;20040;-66
2022/04/14 05:31:14;;;;;;;14.07;6.75;;;;;;;;;;4925470;29;20472;-65
2022/04/14 05:33:40;;;;;;;15.65;6.30;;;;;;;;;;4919628;29;20063;-69
2022/04/14 05:36:06;;;;;;;8.75;5.68;;;;;;;;;;4936215;29;20106;-66
2022/04/14 05:38:33;;;;;;;22.40;7.15;;;;;;;;;;4936763;29;20130;-68
2022/04/14 05:40:59;;;;;;;10.27;6.00;;;;;;;;;;4936640;29;20086;-66
2022/04/14 05:43:27;;;;;;;16.65;5.95;;;;;;;;;;4936827;29;20067;-69
2022/04/14 05:45:56;;;;;;;15.73;5.80;;;;;;;;;;4934877;29;20028;-70
2022/04/14 05:48:23;;;;;;;23.05;6.45;;;;;;;;;;4935688;29;20036;-69
2022/04/14 05:50:49;;;;;;;9.90;5.38;;;;;;;;;;4937004;29;20084;-74
2022/04/14 05:53:17;;;;;;;8.75;5.30;;;;;;;;;;4937954;29;20475;-69
2022/04/14 05:55:44;;;;;;;11.52;5.97;;;;;;;;;;4936012;29;20028;-67
2022/04/14 05:58:11;;;;;;;17.08;6.15;;;;;;;;;;4935956;29;20040;-69
2022/04/14 06:00:36;;;;;;;15.98;5.88;;;;;;;;;;4936512;29;20060;-73
2022/04/14 06:03:03;;;;;;;10.20;6.50;;;;;;;;;;4936306;29;20032;-72
2022/04/14 06:05:29;;;;;;;7.65;5.70;;;;;;;;;;4936079;29;20047;-67
2022/04/14 06:07:56;;;;;;;13.48;5.80;;;;;;;;;;4937030;29;20031;-71
2022/04/14 06:10:23;;;;;;;10.77;6.00;;;;;;;;;;4936371;29;20038;-67
2022/04/14 06:12:49;;;;;;;9.52;5.80;;;;;;;;;;4936311;29;20042;-72
2022/04/14 06:15:15;;;;;;;11.23;5.22;;;;;;;;;;4936163;29;20031;-75
2022/04/14 06:17:45;;;;;;;12.30;6.25;;;;;;;;;;4933973;29;20024;-74
2022/04/14 06:20:12;;;;;;;10.52;5.60;;;;;;;;;;4936164;29;20028;-70
2022/04/14 06:22:39;;;;;;;10.07;5.93;;;;;;;;;;4936388;29;20074;-72
2022/04/14 06:25:06;;;;;;;9.75;6.03;;;;;;;;;;4935298;29;20046;-69
2022/04/14 06:27:32;;;;;;;10.57;6.93;;;;;;;;;;4935313;29;20039;-67
2022/04/14 06:29:58;;;;;;;10.85;6.55;;;;;;;;;;4936515;29;20051;-70
2022/04/14 06:32:24;;;;;;;8.20;5.30;;;;;;;;;;4935757;29;20039;-66
2022/04/14 06:34:50;;;;;;;8.90;6.25;;;;;;;;;;4936132;29;20391;-67
2022/04/14 06:37:16;;;;;;;12.27;6.57;;;;;;;;;;4935932;29;20036;-73
2022/04/14 06:39:41;;;;;;;8.75;5.80;;;;;;;;;;4935726;29;20436;-71
2022/04/14 06:42:07;;;;;;;6.70;5.07;;;;;;;;;;4935997;29;20123;-75
2022/04/14 06:44:33;;;;;;;10.50;6.03;;;;;;;;;;4936123;29;20072;-67
2022/04/14 06:46:59;;;;;;;7.93;5.95;;;;;;;;;;4936032;29;20055;-70
2022/04/14 06:49:25;;;;;;;11.80;8.38;;;;;;;;;;4935867;29;20106;-67
2022/04/14 06:51:51;;;;;;;11.52;5.72;;;;;;;;;;4935412;29;20474;-67
2022/04/14 06:54:17;;;;;;;7.43;5.72;;;;;;;;;;4935108;29;20031;-65
2022/04/14 06:56:43;;;;;;;9.00;6.07;;;;;;;;;;4935320;29;20070;-67
2022/04/14 06:59:08;;;;;;;13.75;6.13;;;;;;;;;;4935820;29;20162;-73
2022/04/14 07:01:34;;;;;;;8.80;5.93;;;;;;;;;;4935372;29;20497;-67
2022/04/14 07:04:00;;;;;;;8.00;5.53;;;;;;;;;;4935471;29;20074;-74
2022/04/14 07:06:26;;;;;;;12.57;5.50;;;;;;;;;;4935353;29;20094;-72
2022/04/14 07:08:51;;;;;;;7.93;5.97;;;;;;;;;;4935381;28;20038;-73
2022/04/14 07:11:18;;;;;;;10.15;5.75;;;;;;;;;;4935191;29;20045;-68
2022/04/14 07:13:44;;;;;;;10.38;5.32;;;;;;;;;;4935642;29;20059;-74
2022/04/14 07:16:10;;;;;;;9.98;5.28;;;;;;;;;;4935710;29;20038;-68
2022/04/14 07:18:36;;;;;;;8.20;5.10;;;;;;;;;;4935277;29;20127;-68
2022/04/14 07:21:02;;;;;;;7.18;4.85;;;;;;;;;;4935289;29;20040;-69
2022/04/14 07:23:28;;;;;;;8.77;4.97;;;;;;;;;;4935406;29;20050;-69
2022/04/14 07:25:54;;;;;;;11.57;5.90;;;;;;;;;;4935476;29;20036;-72
2022/04/14 07:28:19;;;;;;;7.22;4.70;;;;;;;;;;4935060;29;20475;-72
2022/04/14 07:30:45;;;;;;;7.70;4.95;;;;;;;;;;4935059;29;20039;-67
2022/04/14 07:33:11;;;;;;;13.52;5.20;;;;;;;;;;4935122;29;20382;-71
2022/04/14 07:35:37;;;;;;;11.18;4.90;;;;;;;;;;4934686;29;20040;-75
2022/04/14 07:38:03;;;;;;;7.60;4.35;;;;;;;;;;4934848;29;20071;-69
2022/04/14 07:40:29;;;;;;;5.20;4.35;;;;;;;;;;4934706;29;20077;-68
2022/04/14 07:42:55;;;;;;;8.38;4.22;;;;;;;;;;4934513;29;20027;-77
2022/04/14 07:45:21;;;;;;;6.10;4.15;;;;;;;;;;4934504;29;20031;-73
2022/04/14 07:47:47;;;;;;;6.13;4.15;;;;;;;;;;4934460;29;20039;-78
2022/04/14 07:50:21;;;;;;;7.13;4.38;;;;;;;;;;4934497;29;20067;-73
2022/04/14 07:52:48;;;;;;;;;;;;;;;;;;4935202;29;20067;-74
2022/04/14 07:55:26;;;;;;;5.32;3.65;;;;;;;;;;4934311;29;19915;-72
2022/04/14 07:57:53;;;;;;;9.88;4.40;;;;;;;;;;4934687;29;20036;-71
2022/04/14 08:00:20;;;;;;;6.35;4.10;;;;;;;;;;4934252;29;20107;-71
2022/04/14 08:02:50;;;;;;;7.22;4.07;;;;;;;;;;4934569;29;20035;-68
2022/04/14 08:05:16;;;;;;;6.82;4.32;;;;;;;;;;4934742;29;20524;-67
2022/04/14 08:07:42;;;;;;;12.02;4.85;;;;;;;;;;4934595;29;20058;-71
2022/04/14 08:10:08;;;;;;;6.40;3.80;;;;;;;;;;4934700;29;20048;-68
2022/04/14 08:12:34;;;;;;;5.40;3.08;;;;;;;;;;4934470;29;20028;-69
2022/04/14 08:15:00;;;;;;;6.25;3.25;;;;;;;;;;4934775;29;20051;-69
2022/04/14 08:17:25;;;;;;;5.65;3.00;;;;;;;;;;4954071;28;20051;-66
2022/04/14 08:19:52;;;;;;;13.82;4.00;;;;;;;;;;4934593;29;20479;-73
2022/04/14 08:22:20;;;;;;;5.93;3.47;;;;;;;;;;4934445;29;20167;-71
2022/04/14 08:24:47;;;;;;;8.82;3.30;;;;;;;;;;4934033;29;20067;-78
2022/04/14 08:27:14;;;;;;;5.47;3.13;;;;;;;;;;4934189;29;20522;-68
2022/04/14 08:29:39;;;;;;;7.18;3.65;;;;;;;;;;4934197;29;20039;-70
2022/04/14 08:32:07;;;;;;;5.38;3.92;;;;;;;;;;4933726;29;20031;-65
2022/04/14 08:34:34;;;;;;;6.47;3.17;;;;;;;;;;4934240;29;20115;-67
2022/04/14 08:36:59;;;;;;;6.20;3.53;;;;;;;;;;4931083;29;20391;-67
2022/04/14 08:39:26;;;;;;;7.38;3.80;;;;;;;;;;4925746;29;20040;-65
2022/04/14 08:42:02;;;;;;;9.00;3.78;;;;;;;;;;4933928;29;20028;-65
2022/04/14 08:44:31;;;;;;;8.65;3.70;;;;;;;;;;4933805;29;20066;-68
2022/04/14 08:46:58;;;;;;;8.68;2.50;;;;;;;;;;4933978;29;20055;-67
2022/04/14 08:49:24;;;;;;;5.35;2.25;;;;;;;;;;4937433;29;20035;-66
2022/04/14 08:51:50;;;;;;;4.75;2.30;;;;;;;;;;4937835;29;20485;-66
2022/04/14 08:54:19;;;;;;;11.57;3.42;;;;;;;;;;4938084;29;20475;-67
2022/04/14 08:56:47;;;;;;;5.82;2.72;;;;;;;;;;4937679;29;20111;-66
2022/04/14 08:59:14;;;;;;;8.60;3.53;;;;;;;;;;4937346;29;20102;-74
2022/04/14 09:01:40;;;;;;;8.55;3.65;;;;;;;;;;4937947;29;20391;-66
2022/04/14 09:04:07;;;;;;;7.78;3.60;;;;;;;;;;4937937;29;20403;-68
2022/04/14 09:06:33;;;;;;;8.75;3.22;;;;;;;;;;4937882;29;20058;-67
2022/04/14 09:09:00;;;;;;;7.72;3.65;;;;;;;;;;4937523;29;20391;-65
2022/04/14 09:11:28;;;;;;;5.85;2.85;;;;;;;;;;4937372;29;20027;-66
2022/04/14 09:13:55;;;;;;;5.40;3.42;;;;;;;;;;4937552;28;20414;-66
2022/04/14 09:16:21;;;;;;;7.90;3.30;;;;;;;;;;4937444;29;20020;-66
2022/04/14 09:18:47;;;;;;;3.88;2.10;;;;;;;;;;4936973;29;20046;-66
2022/04/14 09:21:14;;;;;;;5.22;2.10;;;;;;;;;;4937224;29;20024;-66
2022/04/14 09:23:50;;;;;;;4.10;2.58;;;;;;;;;;4936392;29;20047;-65
2022/04/14 09:26:22;;;;;;;5.88;2.83;;;;;;;;;;4937370;29;20454;-69
2022/04/14 09:29:09;;;;;;;3.83;2.23;;;;;;;;;;4937387;29;20044;-75
2022/04/14 09:31:49;;;;;;;6.65;2.55;;;;;;;;;;4936946;29;20064;-67
2022/04/14 09:34:17;;;;;;;4.32;2.25;;;;;;;;;;4937219;29;20032;-72
2022/04/14 09:37:09;;;;;;;8.18;2.90;;;;;;;;;;4936984;29;20490;-76
2022/04/14 09:39:55;;;;;;;6.50;2.90;;;;;;;;;;4937167;29;20399;-68
2022/04/14 09:42:25;;;;;;;10.88;3.08;;;;;;;;;;4936963;29;20046;-70
2022/04/14 09:44:52;;;;;;;9.45;3.20;;;;;;;;;;4936925;29;20036;-66
2022/04/14 09:47:37;;;;;;;4.60;2.15;;;;;;;;;;4936305;29;20036;-71
2022/04/14 09:50:03;;;;;;;5.07;2.40;;;;;;;;;;4936323;29;20036;-72
2022/04/14 09:52:29;;;;;;;3.40;2.30;;;;;;;;;;4936540;29;20050;-77
2022/04/14 09:55:09;;;;;;;4.38;1.90;;;;;;;;;;4935743;29;20039;-76
2022/04/14 09:57:35;;;;;;;6.03;2.40;;;;;;;;;;4936522;29;20134;-76
2022/04/14 10:00:00;;;;;;;9.90;2.30;;;;;;;;;;4936287;29;20060;-76
2022/04/14 10:02:26;;;;;;;4.93;2.10;;;;;;;;;;4936318;29;20036;-75
2022/04/14 10:04:52;;;;;;;3.88;1.90;;;;;;;;;;4935776;29;20526;-75
2022/04/14 10:07:19;;;;;;;4.72;2.38;;;;;;;;;;4936105;29;20206;-78
2022/04/14 10:09:51;;;;;;;6.72;2.22;;;;;;;;;;4936113;29;20024;-74
2022/04/14 10:12:20;;;;;;;4.45;1.85;;;;;;;;;;4935753;29;20490;-76
2022/04/14 10:15:04;;;;;;;8.43;2.55;;;;;;;;;;4935970;29;20031;-74
2022/04/14 10:17:32;;;;;;;3.22;2.00;;;;;;;;;;4936513;29;20367;-77
2022/04/14 10:19:59;;;;;;;6.65;2.40;;;;;;;;;;4935654;29;20059;-77
2022/04/14 10:22:27;;;;;;;5.45;2.08;;;;;;;;;;4936069;29;20107;-73
2022/04/14 10:24:54;;;;;;;7.20;2.00;;;;;;;;;;4935388;29;20114;-66
2022/04/14 10:27:21;;;;;;;5.47;1.77;;;;;;;;;;4936182;29;20503;-72
2022/04/14 10:29:48;;;;;;;5.72;2.22;;;;;;;;;;4936685;29;20364;-72
2022/04/14 10:32:14;;;;;;;7.50;2.10;;;;;;;;;;4936763;29;20042;-75
2022/04/14 10:34:41;;;;;;;8.32;2.40;;;;;;;;;;4955136;28;20088;-69
2022/04/14 10:37:16;;;;;;;3.72;1.88;;;;;;;;;;4937331;29;20040;-70
2022/04/14 10:39:49;;;;;;;7.97;2.50;;;;;;;;;;4935247;29;20037;-67
2022/04/14 10:42:26;;;;;;;5.90;2.08;;;;;;;;;;4935806;29;20032;-74
2022/04/14 10:44:53;;;;;;;7.13;2.47;;;;;;;;;;4935650;29;20090;-71
2022/04/14 10:47:43;;;;;;;4.15;1.95;;;;;;;;;;4935662;29;20443;-67
2022/04/14 10:50:28;;;;;;;4.57;2.25;;;;;;;;;;4935529;29;20119;-67
2022/04/14 10:53:13;;;;;;;3.78;2.30;;;;;;;;;;4935902;29;20391;-69
2022/04/14 10:55:48;;;;;;;14.90;2.30;;;;;;;;;;4935190;29;20156;-71
2022/04/14 10:58:29;;;;;;;5.00;2.53;;;;;;;;;;4934326;29;20035;-69
2022/04/14 11:00:56;;;;;;;2.83;1.80;;;;;;;;;;4935191;29;20040;-67
2022/04/14 11:03:48;;;;;;;5.90;3.05;;;;;;;;;;4925984;29;20042;-67
2022/04/14 11:06:42;;;;;;;7.03;2.63;;;;;;;;;;4934400;29;20043;-69
2022/04/14 11:09:28;;;;;;;4.50;2.90;;;;;;;;;;4935582;28;20043;-69
2022/04/14 11:12:01;;;;;;;11.93;2.42;;;;;;;;;;4934796;29;20043;-67
2022/04/14 11:14:27;;;;;;;3.72;1.90;;;;;;;;;;4935427;29;20032;-67
2022/04/14 11:16:53;;;;;;;6.10;2.70;;;;;;;;;;4935405;29;20115;-66
2022/04/14 11:19:20;;;;;;;4.72;2.13;;;;;;;;;;4935771;29;20485;-67
2022/04/14 11:22:07;;;;;;;6.07;2.50;;;;;;;;;;4935564;29;20034;-68
2022/04/14 11:24:43;;;;;;;4.13;1.90;;;;;;;;;;4935227;29;20471;-73
2022/04/14 11:27:25;;;;;;;5.50;2.20;;;;;;;;;;4935010;29;20040;-69
2022/04/14 11:29:57;;;;;;;9.82;2.47;;;;;;;;;;4935387;29;20035;-73
2022/04/14 11:32:42;;;;;;;7.13;3.03;;;;;;;;;;4935314;29;20043;-69
2022/04/14 11:35:16;;;;;;;7.22;2.25;;;;;;;;;;4935127;29;20037;-67
2022/04/14 11:37:49;;;;;;;3.67;2.10;;;;;;;;;;4935386;29;20044;-67
2022/04/14 11:40:24;;;;;;;;;;;;;;;;;;4950238;29;20114;-67
2022/04/14 11:42:52;;;;;;;4.47;3.10;;;;;;;;;;4935812;29;19919;-70
2022/04/14 11:45:25;;;;;;;7.57;2.42;;;;;;;;;;4935355;29;20534;-67
2022/04/14 11:47:54;;;;;;;5.22;2.40;;;;;;;;;;4935421;29;20067;-67
2022/04/14 11:50:25;;;;;;;4.63;2.60;;;;;;;;;;4935301;29;20479;-66
2022/04/14 11:53:02;;;;;;;4.80;2.60;;;;;;;;;;4935490;29;20064;-68
2022/04/14 11:55:39;;;;;;;10.73;2.25;;;;;;;;;;4934278;29;20092;-78
2022/04/14 11:58:10;;;;;;;4.18;2.20;;;;;;;;;;4934061;29;20042;-69
2022/04/14 12:00:43;;;;;;;8.70;3.22;;;;;;;;;;4935257;29;20055;-76
2022/04/14 12:03:09;;;;;;;5.72;2.75;;;;;;;;;;4934905;29;20032;-73
2022/04/14 12:05:34;;;;;;;5.13;2.53;;;;;;;;;;4935179;29;20356;-73
2022/04/14 12:08:08;;;;;;;4.35;2.50;;;;;;;;;;4934799;29;20036;-71
2022/04/14 12:10:34;;;;;;;5.68;2.40;;;;;;;;;;4935096;29;20079;-76
2022/04/14 12:13:07;;;;;;;11.82;2.90;;;;;;;;;;4935053;29;20031;-68
2022/04/14 12:15:33;;;;;;;10.55;2.38;;;;;;;;;;4934878;29;20028;-72
2022/04/14 12:18:10;;;;;;;4.25;1.90;;;;;;;;;;4935179;29;20124;-70
2022/04/14 12:20:40;;;;;;;8.27;2.70;;;;;;;;;;4935047;29;20047;-70
2022/04/14 12:23:10;;;;;;;8.07;1.98;;;;;;;;;;4937858;29;20387;-71
2022/04/14 12:25:37;;;;;;;5.43;2.10;;;;;;;;;;4938773;29;20126;-78
2022/04/14 12:28:04;;;;;;;7.95;2.70;;;;;;;;;;4938645;29;20040;-74
2022/04/14 12:30:30;;;;;;;6.55;2.00;;;;;;;;;;4938750;29;20063;-74
2022/04/14 12:33:01;;;;;;;14.55;9.90;;;;;;;;;;4937359;29;20047;-72
2022/04/14 12:35:38;;;;;;;6.70;2.13;;;;;;;;;;4938328;29;20491;-69
2022/04/14 12:38:21;;;;;;;5.78;2.25;;;;;;;;;;4938451;29;20036;-67
2022/04/14 12:40:54;;;;;;;8.82;2.60;;;;;;;;;;4938738;29;20087;-67
2022/04/14 12:43:22;;;;;;;5.30;2.50;;;;;;;;;;4938779;29;20068;-70
2022/04/14 12:45:48;;;;;;;6.85;2.53;;;;;;;;;;4938524;29;20091;-69
2022/04/14 12:48:25;;;;;;;6.38;3.22;;;;;;;;;;4938379;29;20129;-71
2022/04/14 12:50:56;;;;;;;7.38;2.25;;;;;;;;;;4938578;29;20455;-67
2022/04/14 12:53:25;;;;;;;9.13;2.85;;;;;;;;;;4938726;29;20036;-70
2022/04/14 12:56:11;;;;;;;8.95;5.55;;;;;;;;;;4938577;29;20020;-73
2022/04/14 12:58:37;;;;;;;6.32;2.47;;;;;;;;;;4935814;29;20151;-68
2022/04/14 13:01:08;;;;;;;6.70;2.78;;;;;;;;;;4938203;29;20482;-67
2022/04/14 13:03:52;;;;;;;5.80;2.63;;;;;;;;;;4937619;29;20040;-71
2022/04/14 13:06:19;;;;;;;12.90;6.38;;;;;;;;;;4933975;29;20122;-69
2022/04/14 13:08:45;;;;;;;4.00;2.25;;;;;;;;;;4936373;29;20039;-68
2022/04/14 13:11:43;;;;;;;7.60;3.00;;;;;;;;;;4936506;29;20031;-72
2022/04/14 13:14:16;;;;;;;5.35;2.67;;;;;;;;;;4936389;29;20079;-67
2022/04/14 13:16:44;;;;;;;7.15;2.97;;;;;;;;;;4936375;29;20372;-69
2022/04/14 13:19:10;;;;;;;7.20;3.10;;;;;;;;;;4936303;29;20042;-68
2022/04/14 13:21:36;;;;;;;5.25;2.30;;;;;;;;;;4935955;29;20538;-70
2022/04/14 13:24:02;;;;;;;8.10;3.05;;;;;;;;;;4936230;29;20108;-68
2022/04/14 13:26:29;;;;;;;10.75;3.20;;;;;;;;;;4935928;29;20384;-72
2022/04/14 13:28:55;;;;;;;10.23;6.32;;;;;;;;;;4936117;29;20484;-69
2022/04/14 13:31:21;;;;;;;11.93;5.65;;;;;;;;;;4936215;29;20139;-70
2022/04/14 13:33:47;;;;;;;14.25;8.15;;;;;;;;;;4934254;29;20122;-69
2022/04/14 13:36:13;;;;;;;5.35;2.65;;;;;;;;;;4935864;29;20032;-70
2022/04/14 13:38:39;;;;;;;7.65;2.88;;;;;;;;;;4936012;29;20055;-71
2022/04/14 13:41:05;;;;;;;7.50;2.78;;;;;;;;;;4950922;29;20036;-67
2022/04/14 13:43:30;;;;;;;7.78;2.70;;;;;;;;;;4936199;29;20030;-69
2022/04/14 13:45:56;;;;;;;8.60;2.70;;;;;;;;;;4936325;29;20042;-68
2022/04/14 13:48:22;;;;;;;4.50;2.38;;;;;;;;;;4936011;29;20481;-68
2022/04/14 13:50:49;;;;;;;9.45;3.13;;;;;;;;;;4935844;29;20511;-69
2022/04/14 13:53:17;;;;;;;4.90;2.40;;;;;;;;;;4935529;29;20048;-68
2022/04/14 13:55:43;;;;;;;3.88;2.10;;;;;;;;;;4935587;29;20114;-72
2022/04/14 13:58:09;;;;;;;4.60;2.47;;;;;;;;;;4935915;29;20439;-69
2022/04/14 14:00:35;;;;;;;5.40;2.25;;;;;;;;;;4935857;29;20190;-74
2022/04/14 14:03:02;;;;;;;8.05;2.70;;;;;;;;;;4935539;29;20435;-74
2022/04/14 14:05:28;;;;;;;4.03;2.45;;;;;;;;;;4935561;29;20390;-74
2022/04/14 14:07:54;;;;;;;6.97;2.50;;;;;;;;;;4935721;29;20027;-73
2022/04/14 14:10:20;;;;;;;9.88;2.70;;;;;;;;;;4935738;29;20036;-69
2022/04/14 14:12:47;;;;;;;3.58;2.50;;;;;;;;;;4935347;29;20035;-70
2022/04/14 14:15:13;;;;;;;6.70;2.72;;;;;;;;;;4935662;29;20039;-75
2022/04/14 14:17:39;;;;;;;9.38;3.80;;;;;;;;;;4935412;29;20023;-73
2022/04/14 14:20:09;;;;;;;8.38;2.30;;;;;;;;;;4935241;29;20039;-71
2022/04/14 14:22:36;;;;;;;8.55;2.78;;;;;;;;;;4935534;29;20036;-74
2022/04/14 14:25:01;;;;;;;3.65;2.40;;;;;;;;;;4935585;29;20032;-77
2022/04/14 14:27:27;;;;;;;5.97;2.47;;;;;;;;;;4934908;29;20171;-71
2022/04/14 14:29:53;;;;;;;8.70;3.25;;;;;;;;;;4935381;29;20418;-71
2022/04/14 14:32:19;;;;;;;4.47;2.30;;;;;;;;;;4935374;29;20502;-73
2022/04/14 14:34:44;;;;;;;5.75;2.40;;;;;;;;;;4935146;29;20024;-70
2022/04/14 14:37:10;;;;;;;6.22;2.53;;;;;;;;;;4933656;29;20047;-76
2022/04/14 14:39:36;;;;;;;3.65;2.30;;;;;;;;;;4933670;29;20031;-77
2022/04/14 14:42:04;;;;;;;3.15;2.33;;;;;;;;;;4935345;29;20083;-73
2022/04/14 14:44:30;;;;;;;4.90;2.88;;;;;;;;;;4935296;29;20023;-73